sensor_id;sensor_type;location;lat;lon;timestamp;temperature;humidity
29577;DHT22;16509;53.862;10.672;2022-07-23T00:00:10;16.10;99.90
29577;DHT22;16509;53.862;10.672;2022-07-23T00:02:36;15.80;99.90
29577;DHT22;16509;53.862;10.672;2022-07-23T00:05:01;16.00;99.90
29577;DHT22;16509;53.862;10.672;2022-07-23T00:07:27;15.80;99.90
29577;DHT22;16509;53.862;10.672;2022-07-23T00:09:53;16.40;99.90
29577;DHT22;16509;53.862;10.672;2022-07-23T00:12:18;15.80;99.90
29577;DHT22;16509;53.862;10.672;2022-07-23T00:14:44;16.00;99.90
29577;DHT22;16509;53.862;10.672;2022-07-23T00:17:10;16.00;99.90
29577;DHT22;16509;53.862;10.672;2022-07-23T00:19:35;15.30;99.90
29577;DHT22;16509;53.862;10.672;2022-07-23T00:22:01;15.90;99.90
29577;DHT22;16509;53.862;10.672;2022-07-23T00:24:26;16.00;99.90
29577;DHT22;16509;53.862;10.672;2022-07-23T00:26:52;15.80;99.90
29577;DHT22;16509;53.862;10.672;2022-07-23T00:29:17;15.80;99.90
29577;DHT22;16509;53.862;10.672;2022-07-23T00:31:43;16.00;99.90
29577;DHT22;16509;53.862;10.672;2022-07-23T00:34:08;15.80;99.90
29577;DHT22;16509;53.862;10.672;2022-07-23T00:36:34;16.40;99.90
29577;DHT22;16509;53.862;10.672;2022-07-23T00:39:00;16.00;99.90
29577;DHT22;16509;53.862;10.672;2022-07-23T00:41:26;16.80;99.90
29577;DHT22;16509;53.862;10.672;2022-07-23T00:43:52;15.80;99.90
29577;DHT22;16509;53.862;10.672;2022-07-23T00:46:21;15.80;99.90
29577;DHT22;16509;53.862;10.672;2022-07-23T00:48:47;15.80;99.90
29577;DHT22;16509;53.862;10.672;2022-07-23T00:51:14;15.80;99.90
29577;DHT22;16509;53.862;10.672;2022-07-23T00:53:40;15.70;99.90
29577;DHT22;16509;53.862;10.672;2022-07-23T00:56:06;15.90;99.90
29577;DHT22;16509;53.862;10.672;2022-07-23T00:58:34;15.70;99.90
29577;DHT22;16509;53.862;10.672;2022-07-23T01:01:00;15.70;99.90
29577;DHT22;16509;53.862;10.672;2022-07-23T01:03:26;15.60;99.90
29577;DHT22;16509;53.862;10.672;2022-07-23T01:05:51;15.90;99.90
29577;DHT22;16509;53.862;10.672;2022-07-23T01:08:17;15.90;99.90
29577;DHT22;16509;53.862;10.672;2022-07-23T01:10:43;15.90;99.90
29577;DHT22;16509;53.862;10.672;2022-07-23T01:13:09;15.80;99.90
29577;DHT22;16509;53.862;10.672;2022-07-23T01:15:36;15.90;99.90
29577;DHT22;16509;53.862;10.672;2022-07-23T01:18:03;15.60;99.90
29577;DHT22;16509;53.862;10.672;2022-07-23T01:20:30;15.60;99.90
29577;DHT22;16509;53.862;10.672;2022-07-23T01:22:57;15.70;99.90
29577;DHT22;16509;53.862;10.672;2022-07-23T01:25:22;15.60;99.90
29577;DHT22;16509;53.862;10.672;2022-07-23T01:27:48;15.50;99.90
29577;DHT22;16509;53.862;10.672;2022-07-23T01:30:14;16.00;99.90
29577;DHT22;16509;53.862;10.672;2022-07-23T01:32:40;15.60;99.90
29577;DHT22;16509;53.862;10.672;2022-07-23T01:35:07;15.50;99.90
29577;DHT22;16509;53.862;10.672;2022-07-23T01:37:32;15.50;99.90
29577;DHT22;16509;53.862;10.672;2022-07-23T01:39:58;15.70;99.90
29577;DHT22;16509;53.862;10.672;2022-07-23T01:42:24;15.40;99.90
29577;DHT22;16509;53.862;10.672;2022-07-23T01:44:50;15.30;99.90
29577;DHT22;16509;53.862;10.672;2022-07-23T01:47:16;15.80;99.90
29577;DHT22;16509;53.862;10.672;2022-07-23T01:49:42;15.40;99.90
29577;DHT22;16509;53.862;10.672;2022-07-23T01:52:08;15.70;99.90
29577;DHT22;16509;53.862;10.672;2022-07-23T01:54:38;16.10;99.90
29577;DHT22;16509;53.862;10.672;2022-07-23T01:57:05;15.50;99.90
29577;DHT22;16509;53.862;10.672;2022-07-23T01:59:31;15.40;99.90
29577;DHT22;16509;53.862;10.672;2022-07-23T02:01:57;15.20;99.90
29577;DHT22;16509;53.862;10.672;2022-07-23T02:04:23;15.60;99.90
29577;DHT22;16509;53.862;10.672;2022-07-23T02:06:50;15.80;99.90
29577;DHT22;16509;53.862;10.672;2022-07-23T02:09:16;15.40;99.90
29577;DHT22;16509;53.862;10.672;2022-07-23T02:11:41;15.60;99.90
29577;DHT22;16509;53.862;10.672;2022-07-23T02:14:07;16.00;99.90
29577;DHT22;16509;53.862;10.672;2022-07-23T02:16:33;15.30;99.90
29577;DHT22;16509;53.862;10.672;2022-07-23T02:18:58;15.70;99.90
29577;DHT22;16509;53.862;10.672;2022-07-23T02:21:24;15.70;99.90
29577;DHT22;16509;53.862;10.672;2022-07-23T02:23:50;15.60;99.90
29577;DHT22;16509;53.862;10.672;2022-07-23T02:26:15;15.60;99.90
29577;DHT22;16509;53.862;10.672;2022-07-23T02:28:41;15.70;99.90
29577;DHT22;16509;53.862;10.672;2022-07-23T02:31:06;15.60;99.90
29577;DHT22;16509;53.862;10.672;2022-07-23T02:33:33;15.80;99.90
29577;DHT22;16509;53.862;10.672;2022-07-23T02:35:59;15.50;99.90
29577;DHT22;16509;53.862;10.672;2022-07-23T02:38:24;15.30;99.90
29577;DHT22;16509;53.862;10.672;2022-07-23T02:40:50;15.10;99.90
29577;DHT22;16509;53.862;10.672;2022-07-23T02:43:16;15.40;99.90
29577;DHT22;16509;53.862;10.672;2022-07-23T02:45:41;15.20;99.90
29577;DHT22;16509;53.862;10.672;2022-07-23T02:48:07;15.50;99.90
29577;DHT22;16509;53.862;10.672;2022-07-23T02:50:32;15.60;99.90
29577;DHT22;16509;53.862;10.672;2022-07-23T02:52:58;15.30;99.90
29577;DHT22;16509;53.862;10.672;2022-07-23T02:55:24;15.40;99.90
29577;DHT22;16509;53.862;10.672;2022-07-23T02:57:50;15.40;99.90
29577;DHT22;16509;53.862;10.672;2022-07-23T03:00:15;15.10;99.90
29577;DHT22;16509;53.862;10.672;2022-07-23T03:02:41;15.40;99.90
29577;DHT22;16509;53.862;10.672;2022-07-23T03:05:07;15.40;99.90
29577;DHT22;16509;53.862;10.672;2022-07-23T03:07:32;15.40;99.90
29577;DHT22;16509;53.862;10.672;2022-07-23T03:09:58;17.00;99.90
29577;DHT22;16509;53.862;10.672;2022-07-23T03:12:24;15.90;99.90
29577;DHT22;16509;53.862;10.672;2022-07-23T03:14:49;15.40;99.90
29577;DHT22;16509;53.862;10.672;2022-07-23T03:17:15;15.50;99.90
29577;DHT22;16509;53.862;10.672;2022-07-23T03:19:40;15.30;99.90
29577;DHT22;16509;53.862;10.672;2022-07-23T03:22:06;15.30;99.90
29577;DHT22;16509;53.862;10.672;2022-07-23T03:24:31;15.70;99.90
29577;DHT22;16509;53.862;10.672;2022-07-23T03:27:16;15.60;99.90
29577;DHT22;16509;53.862;10.672;2022-07-23T03:29:41;15.50;99.90
29577;DHT22;16509;53.862;10.672;2022-07-23T03:32:07;15.70;99.90
29577;DHT22;16509;53.862;10.672;2022-07-23T03:34:32;15.50;99.90
29577;DHT22;16509;53.862;10.672;2022-07-23T03:36:58;15.80;99.90
29577;DHT22;16509;53.862;10.672;2022-07-23T03:39:25;15.50;99.90
29577;DHT22;16509;53.862;10.672;2022-07-23T03:41:50;15.30;99.90
29577;DHT22;16509;53.862;10.672;2022-07-23T03:44:17;15.40;99.90
29577;DHT22;16509;53.862;10.672;2022-07-23T03:46:42;15.40;99.90
29577;DHT22;16509;53.862;10.672;2022-07-23T03:49:08;15.40;99.90
29577;DHT22;16509;53.862;10.672;2022-07-23T03:51:34;15.60;99.90
29577;DHT22;16509;53.862;10.672;2022-07-23T03:53:59;15.40;99.90
29577;DHT22;16509;53.862;10.672;2022-07-23T03:56:25;15.50;99.90
29577;DHT22;16509;53.862;10.672;2022-07-23T03:58:51;15.30;99.90
29577;DHT22;16509;53.862;10.672;2022-07-23T04:01:17;15.30;99.90
29577;DHT22;16509;53.862;10.672;2022-07-23T04:03:43;15.90;99.90
29577;DHT22;16509;53.862;10.672;2022-07-23T04:06:08;15.20;99.90
29577;DHT22;16509;53.862;10.672;2022-07-23T04:08:34;15.40;99.90
29577;DHT22;16509;53.862;10.672;2022-07-23T04:10:59;15.60;99.90
29577;DHT22;16509;53.862;10.672;2022-07-23T04:13:25;15.20;99.90
29577;DHT22;16509;53.862;10.672;2022-07-23T04:15:50;15.20;99.90
29577;DHT22;16509;53.862;10.672;2022-07-23T04:18:17;14.90;99.90
29577;DHT22;16509;53.862;10.672;2022-07-23T04:20:43;16.00;99.90
29577;DHT22;16509;53.862;10.672;2022-07-23T04:23:09;15.30;99.90
29577;DHT22;16509;53.862;10.672;2022-07-23T04:25:35;15.80;99.90
29577;DHT22;16509;53.862;10.672;2022-07-23T04:28:01;15.20;99.90
29577;DHT22;16509;53.862;10.672;2022-07-23T04:30:26;15.10;99.90
29577;DHT22;16509;53.862;10.672;2022-07-23T04:32:52;15.60;99.90
29577;DHT22;16509;53.862;10.672;2022-07-23T04:35:18;15.50;99.90
29577;DHT22;16509;53.862;10.672;2022-07-23T04:37:43;15.80;99.90
29577;DHT22;16509;53.862;10.672;2022-07-23T04:40:10;15.50;99.90
29577;DHT22;16509;53.862;10.672;2022-07-23T04:42:36;15.20;99.90
29577;DHT22;16509;53.862;10.672;2022-07-23T04:45:02;15.40;99.90
29577;DHT22;16509;53.862;10.672;2022-07-23T04:47:29;15.30;99.90
29577;DHT22;16509;53.862;10.672;2022-07-23T04:49:54;15.30;99.90
29577;DHT22;16509;53.862;10.672;2022-07-23T04:52:20;15.80;99.90
29577;DHT22;16509;53.862;10.672;2022-07-23T04:54:46;15.30;99.90
29577;DHT22;16509;53.862;10.672;2022-07-23T04:57:11;15.40;99.90
29577;DHT22;16509;53.862;10.672;2022-07-23T04:59:37;15.40;99.90
29577;DHT22;16509;53.862;10.672;2022-07-23T05:02:02;15.40;99.90
29577;DHT22;16509;53.862;10.672;2022-07-23T05:04:28;15.60;99.90
29577;DHT22;16509;53.862;10.672;2022-07-23T05:06:53;15.40;99.90
29577;DHT22;16509;53.862;10.672;2022-07-23T05:09:19;15.20;99.90
29577;DHT22;16509;53.862;10.672;2022-07-23T05:11:44;15.60;99.90
29577;DHT22;16509;53.862;10.672;2022-07-23T05:14:10;15.60;99.90
29577;DHT22;16509;53.862;10.672;2022-07-23T05:16:38;15.60;99.90
29577;DHT22;16509;53.862;10.672;2022-07-23T05:19:03;15.70;99.90
29577;DHT22;16509;53.862;10.672;2022-07-23T05:21:29;15.50;99.90
29577;DHT22;16509;53.862;10.672;2022-07-23T05:23:55;15.90;99.90
29577;DHT22;16509;53.862;10.672;2022-07-23T05:26:20;15.70;99.90
29577;DHT22;16509;53.862;10.672;2022-07-23T05:28:46;15.60;99.90
29577;DHT22;16509;53.862;10.672;2022-07-23T05:31:12;15.80;99.90
29577;DHT22;16509;53.862;10.672;2022-07-23T05:33:37;15.70;99.90
29577;DHT22;16509;53.862;10.672;2022-07-23T05:36:04;16.70;99.90
29577;DHT22;16509;53.862;10.672;2022-07-23T05:38:29;15.60;99.90
29577;DHT22;16509;53.862;10.672;2022-07-23T05:40:55;15.80;99.90
29577;DHT22;16509;53.862;10.672;2022-07-23T05:43:21;15.60;99.90
29577;DHT22;16509;53.862;10.672;2022-07-23T05:45:47;16.50;99.90
29577;DHT22;16509;53.862;10.672;2022-07-23T05:48:12;15.70;99.90
29577;DHT22;16509;53.862;10.672;2022-07-23T05:50:38;15.80;99.90
29577;DHT22;16509;53.862;10.672;2022-07-23T05:53:04;15.90;99.90
29577;DHT22;16509;53.862;10.672;2022-07-23T05:55:29;15.70;99.90
29577;DHT22;16509;53.862;10.672;2022-07-23T05:57:57;15.50;99.90
29577;DHT22;16509;53.862;10.672;2022-07-23T06:00:23;15.70;99.90
29577;DHT22;16509;53.862;10.672;2022-07-23T06:02:49;15.40;99.90
29577;DHT22;16509;53.862;10.672;2022-07-23T06:05:14;15.70;99.90
29577;DHT22;16509;53.862;10.672;2022-07-23T06:07:40;15.40;99.90
29577;DHT22;16509;53.862;10.672;2022-07-23T06:10:06;15.30;99.90
29577;DHT22;16509;53.862;10.672;2022-07-23T06:12:37;15.40;99.90
29577;DHT22;16509;53.862;10.672;2022-07-23T06:15:04;15.40;99.90
29577;DHT22;16509;53.862;10.672;2022-07-23T06:17:30;15.40;99.90
29577;DHT22;16509;53.862;10.672;2022-07-23T06:19:55;15.60;99.90
29577;DHT22;16509;53.862;10.672;2022-07-23T06:22:21;15.30;99.90
29577;DHT22;16509;53.862;10.672;2022-07-23T06:24:47;15.80;99.90
29577;DHT22;16509;53.862;10.672;2022-07-23T06:27:13;15.40;99.90
29577;DHT22;16509;53.862;10.672;2022-07-23T06:29:39;15.50;99.90
29577;DHT22;16509;53.862;10.672;2022-07-23T06:32:06;15.60;99.90
29577;DHT22;16509;53.862;10.672;2022-07-23T06:34:32;15.40;99.90
29577;DHT22;16509;53.862;10.672;2022-07-23T06:36:57;16.70;99.90
29577;DHT22;16509;53.862;10.672;2022-07-23T06:39:23;15.60;99.90
29577;DHT22;16509;53.862;10.672;2022-07-23T06:41:49;15.60;99.90
29577;DHT22;16509;53.862;10.672;2022-07-23T06:44:14;15.90;99.90
29577;DHT22;16509;53.862;10.672;2022-07-23T06:46:40;15.60;99.90
29577;DHT22;16509;53.862;10.672;2022-07-23T06:49:05;15.90;99.90
29577;DHT22;16509;53.862;10.672;2022-07-23T06:51:31;15.70;99.90
29577;DHT22;16509;53.862;10.672;2022-07-23T06:53:56;16.20;99.90
29577;DHT22;16509;53.862;10.672;2022-07-23T06:56:22;16.10;99.90
29577;DHT22;16509;53.862;10.672;2022-07-23T06:58:47;16.00;99.90
29577;DHT22;16509;53.862;10.672;2022-07-23T07:01:13;16.00;99.90
29577;DHT22;16509;53.862;10.672;2022-07-23T07:03:39;16.20;99.90
29577;DHT22;16509;53.862;10.672;2022-07-23T07:06:04;15.90;99.90
29577;DHT22;16509;53.862;10.672;2022-07-23T07:08:30;15.80;99.90
29577;DHT22;16509;53.862;10.672;2022-07-23T07:10:55;15.70;99.90
29577;DHT22;16509;53.862;10.672;2022-07-23T07:13:21;16.50;99.90
29577;DHT22;16509;53.862;10.672;2022-07-23T07:15:46;15.80;99.90
29577;DHT22;16509;53.862;10.672;2022-07-23T07:18:12;15.90;99.90
29577;DHT22;16509;53.862;10.672;2022-07-23T07:20:38;16.40;99.90
29577;DHT22;16509;53.862;10.672;2022-07-23T07:23:03;16.20;99.90
29577;DHT22;16509;53.862;10.672;2022-07-23T07:25:29;15.40;99.90
29577;DHT22;16509;53.862;10.672;2022-07-23T07:27:54;15.80;99.90
29577;DHT22;16509;53.862;10.672;2022-07-23T07:30:20;15.40;99.90
29577;DHT22;16509;53.862;10.672;2022-07-23T07:32:45;15.20;99.90
29577;DHT22;16509;53.862;10.672;2022-07-23T07:35:11;15.30;99.90
29577;DHT22;16509;53.862;10.672;2022-07-23T07:37:37;15.20;99.90
29577;DHT22;16509;53.862;10.672;2022-07-23T07:40:03;15.30;99.90
29577;DHT22;16509;53.862;10.672;2022-07-23T07:42:28;15.30;99.90
29577;DHT22;16509;53.862;10.672;2022-07-23T07:44:54;15.50;99.90
29577;DHT22;16509;53.862;10.672;2022-07-23T07:47:20;15.50;99.90
29577;DHT22;16509;53.862;10.672;2022-07-23T07:49:45;15.80;99.90
29577;DHT22;16509;53.862;10.672;2022-07-23T07:52:11;16.20;99.90
29577;DHT22;16509;53.862;10.672;2022-07-23T07:54:37;16.40;99.90
29577;DHT22;16509;53.862;10.672;2022-07-23T07:57:02;16.70;99.90
29577;DHT22;16509;53.862;10.672;2022-07-23T07:59:28;16.50;99.90
29577;DHT22;16509;53.862;10.672;2022-07-23T08:01:53;16.50;99.90
29577;DHT22;16509;53.862;10.672;2022-07-23T08:04:19;16.90;99.90
29577;DHT22;16509;53.862;10.672;2022-07-23T08:06:45;16.60;99.90
29577;DHT22;16509;53.862;10.672;2022-07-23T08:09:11;16.80;99.90
29577;DHT22;16509;53.862;10.672;2022-07-23T08:11:37;17.40;99.90
29577;DHT22;16509;53.862;10.672;2022-07-23T08:14:02;17.60;99.90
29577;DHT22;16509;53.862;10.672;2022-07-23T08:16:28;17.40;99.90
29577;DHT22;16509;53.862;10.672;2022-07-23T08:18:54;17.70;99.90
29577;DHT22;16509;53.862;10.672;2022-07-23T08:21:19;18.10;99.90
29577;DHT22;16509;53.862;10.672;2022-07-23T08:23:45;18.20;99.90
29577;DHT22;16509;53.862;10.672;2022-07-23T08:26:11;18.60;99.90
29577;DHT22;16509;53.862;10.672;2022-07-23T08:28:37;18.80;99.90
29577;DHT22;16509;53.862;10.672;2022-07-23T08:31:03;20.40;99.90
29577;DHT22;16509;53.862;10.672;2022-07-23T08:33:31;19.30;99.90
29577;DHT22;16509;53.862;10.672;2022-07-23T08:35:56;19.60;99.90
29577;DHT22;16509;53.862;10.672;2022-07-23T08:38:22;19.30;99.90
29577;DHT22;16509;53.862;10.672;2022-07-23T08:40:50;19.30;99.90
29577;DHT22;16509;53.862;10.672;2022-07-23T08:43:24;19.20;99.90
29577;DHT22;16509;53.862;10.672;2022-07-23T08:45:55;19.10;99.90
29577;DHT22;16509;53.862;10.672;2022-07-23T08:48:41;19.30;99.90
29577;DHT22;16509;53.862;10.672;2022-07-23T08:51:08;19.20;99.90
29577;DHT22;16509;53.862;10.672;2022-07-23T08:53:36;19.30;99.90
29577;DHT22;16509;53.862;10.672;2022-07-23T08:56:04;19.30;99.90
29577;DHT22;16509;53.862;10.672;2022-07-23T08:58:30;19.40;99.90
29577;DHT22;16509;53.862;10.672;2022-07-23T09:00:57;19.70;99.90
29577;DHT22;16509;53.862;10.672;2022-07-23T09:03:28;19.60;99.90
29577;DHT22;16509;53.862;10.672;2022-07-23T09:05:55;20.70;99.90
29577;DHT22;16509;53.862;10.672;2022-07-23T09:08:24;19.20;99.90
29577;DHT22;16509;53.862;10.672;2022-07-23T09:16:05;18.40;99.90
29577;DHT22;16509;53.862;10.672;2022-07-23T09:18:39;18.40;99.90
29577;DHT22;16509;53.862;10.672;2022-07-23T09:21:32;18.30;99.90
29577;DHT22;16509;53.862;10.672;2022-07-23T09:24:08;18.50;99.90
29577;DHT22;16509;53.862;10.672;2022-07-23T09:26:38;18.70;99.90
29577;DHT22;16509;53.862;10.672;2022-07-23T09:34:29;18.50;99.90
29577;DHT22;16509;53.862;10.672;2022-07-23T09:37:18;18.50;99.90
29577;DHT22;16509;53.862;10.672;2022-07-23T09:39:46;18.40;99.90
29577;DHT22;16509;53.862;10.672;2022-07-23T09:44:49;18.70;99.90
29577;DHT22;16509;53.862;10.672;2022-07-23T09:47:16;18.70;99.90
29577;DHT22;16509;53.862;10.672;2022-07-23T09:50:03;18.80;99.90
29577;DHT22;16509;53.862;10.672;2022-07-23T09:52:49;18.90;99.90
29577;DHT22;16509;53.862;10.672;2022-07-23T09:55:15;18.90;99.90
29577;DHT22;16509;53.862;10.672;2022-07-23T09:57:42;18.60;99.90
29577;DHT22;16509;53.862;10.672;2022-07-23T10:00:12;18.60;99.90
29577;DHT22;16509;53.862;10.672;2022-07-23T10:02:40;18.40;99.90
29577;DHT22;16509;53.862;10.672;2022-07-23T10:05:06;18.50;99.90
29577;DHT22;16509;53.862;10.672;2022-07-23T10:07:34;18.70;99.90
29577;DHT22;16509;53.862;10.672;2022-07-23T10:10:01;18.80;99.90
29577;DHT22;16509;53.862;10.672;2022-07-23T10:12:27;18.90;99.90
29577;DHT22;16509;53.862;10.672;2022-07-23T10:15:03;18.90;99.90
29577;DHT22;16509;53.862;10.672;2022-07-23T10:17:30;18.90;99.90
29577;DHT22;16509;53.862;10.672;2022-07-23T10:19:55;19.40;99.90
29577;DHT22;16509;53.862;10.672;2022-07-23T10:22:23;20.10;99.90
29577;DHT22;16509;53.862;10.672;2022-07-23T10:32:40;20.80;99.90
29577;DHT22;16509;53.862;10.672;2022-07-23T10:37:45;20.00;99.90
29577;DHT22;16509;53.862;10.672;2022-07-23T10:40:18;19.60;99.90
29577;DHT22;16509;53.862;10.672;2022-07-23T10:42:46;19.40;99.90
29577;DHT22;16509;53.862;10.672;2022-07-23T10:47:54;18.90;99.90
29577;DHT22;16509;53.862;10.672;2022-07-23T10:58:00;18.40;99.90
29577;DHT22;16509;53.862;10.672;2022-07-23T11:00:30;18.20;99.90
29577;DHT22;16509;53.862;10.672;2022-07-23T11:03:01;18.20;99.90
29577;DHT22;16509;53.862;10.672;2022-07-23T11:05:47;18.20;99.90
29577;DHT22;16509;53.862;10.672;2022-07-23T11:08:15;18.20;99.90
29577;DHT22;16509;53.862;10.672;2022-07-23T11:24:06;18.10;99.90
29577;DHT22;16509;53.862;10.672;2022-07-23T11:32:02;17.90;99.90
29577;DHT22;16509;53.862;10.672;2022-07-23T11:37:06;18.10;99.90
29577;DHT22;16509;53.862;10.672;2022-07-23T11:39:33;18.50;99.90
29577;DHT22;16509;53.862;10.672;2022-07-23T11:41:59;18.60;99.90
29577;DHT22;16509;53.862;10.672;2022-07-23T11:44:26;18.80;99.90
29577;DHT22;16509;53.862;10.672;2022-07-23T11:46:59;19.40;99.90
29577;DHT22;16509;53.862;10.672;2022-07-23T11:49:26;19.20;99.90
29577;DHT22;16509;53.862;10.672;2022-07-23T11:54:33;19.70;99.90
29577;DHT22;16509;53.862;10.672;2022-07-23T11:57:00;19.90;99.90
29577;DHT22;16509;53.862;10.672;2022-07-23T11:59:27;20.10;99.90
29577;DHT22;16509;53.862;10.672;2022-07-23T12:01:58;20.10;99.90
29577;DHT22;16509;53.862;10.672;2022-07-23T12:04:36;20.40;99.90
29577;DHT22;16509;53.862;10.672;2022-07-23T12:07:02;21.00;99.90
29577;DHT22;16509;53.862;10.672;2022-07-23T12:09:28;20.90;99.90
29577;DHT22;16509;53.862;10.672;2022-07-23T12:12:00;20.80;99.90
29577;DHT22;16509;53.862;10.672;2022-07-23T12:14:26;20.70;99.90
29577;DHT22;16509;53.862;10.672;2022-07-23T12:17:10;20.40;99.90
29577;DHT22;16509;53.862;10.672;2022-07-23T12:19:36;20.30;99.90
29577;DHT22;16509;53.862;10.672;2022-07-23T12:22:02;20.30;99.90
29577;DHT22;16509;53.862;10.672;2022-07-23T12:24:28;19.90;99.90
29577;DHT22;16509;53.862;10.672;2022-07-23T12:27:12;20.40;99.90
29577;DHT22;16509;53.862;10.672;2022-07-23T12:29:39;20.10;99.90
29577;DHT22;16509;53.862;10.672;2022-07-23T12:32:22;20.00;99.90
29577;DHT22;16509;53.862;10.672;2022-07-23T12:34:49;20.00;99.90
29577;DHT22;16509;53.862;10.672;2022-07-23T12:37:33;20.00;99.90
29577;DHT22;16509;53.862;10.672;2022-07-23T12:40:19;19.80;99.90
29577;DHT22;16509;53.862;10.672;2022-07-23T12:42:47;19.70;99.90
29577;DHT22;16509;53.862;10.672;2022-07-23T12:45:12;19.50;99.90
29577;DHT22;16509;53.862;10.672;2022-07-23T12:48:18;19.60;99.90
29577;DHT22;16509;53.862;10.672;2022-07-23T12:50:47;19.60;99.90
29577;DHT22;16509;53.862;10.672;2022-07-23T12:53:17;19.60;99.90
29577;DHT22;16509;53.862;10.672;2022-07-23T12:55:44;19.70;99.90
29577;DHT22;16509;53.862;10.672;2022-07-23T12:58:20;19.90;99.90
29577;DHT22;16509;53.862;10.672;2022-07-23T13:00:56;20.40;99.90
29577;DHT22;16509;53.862;10.672;2022-07-23T13:03:29;21.00;99.90
29577;DHT22;16509;53.862;10.672;2022-07-23T13:05:58;21.30;99.90
29577;DHT22;16509;53.862;10.672;2022-07-23T13:08:26;21.30;99.90
29577;DHT22;16509;53.862;10.672;2022-07-23T13:10:52;21.20;99.90
29577;DHT22;16509;53.862;10.672;2022-07-23T13:13:21;20.90;99.90
29577;DHT22;16509;53.862;10.672;2022-07-23T13:15:48;20.60;99.90
29577;DHT22;16509;53.862;10.672;2022-07-23T13:18:13;20.80;99.90
29577;DHT22;16509;53.862;10.672;2022-07-23T13:20:39;20.60;99.90
29577;DHT22;16509;53.862;10.672;2022-07-23T13:23:06;20.00;99.90
29577;DHT22;16509;53.862;10.672;2022-07-23T13:25:32;19.90;99.90
29577;DHT22;16509;53.862;10.672;2022-07-23T13:27:59;21.20;99.90
29577;DHT22;16509;53.862;10.672;2022-07-23T13:30:25;19.50;99.90
29577;DHT22;16509;53.862;10.672;2022-07-23T13:32:51;19.50;99.90
29577;DHT22;16509;53.862;10.672;2022-07-23T13:35:17;19.50;99.90
29577;DHT22;16509;53.862;10.672;2022-07-23T13:37:44;19.60;99.90
29577;DHT22;16509;53.862;10.672;2022-07-23T13:40:10;20.30;99.90
29577;DHT22;16509;53.862;10.672;2022-07-23T13:42:41;20.00;99.90
29577;DHT22;16509;53.862;10.672;2022-07-23T13:45:07;20.10;99.90
29577;DHT22;16509;53.862;10.672;2022-07-23T13:47:34;19.80;99.90
29577;DHT22;16509;53.862;10.672;2022-07-23T13:50:00;19.90;99.90
29577;DHT22;16509;53.862;10.672;2022-07-23T13:52:28;20.00;99.90
29577;DHT22;16509;53.862;10.672;2022-07-23T13:54:54;19.70;99.90
29577;DHT22;16509;53.862;10.672;2022-07-23T13:57:20;19.90;99.90
29577;DHT22;16509;53.862;10.672;2022-07-23T13:59:45;20.30;99.90
29577;DHT22;16509;53.862;10.672;2022-07-23T14:02:15;20.10;99.90
29577;DHT22;16509;53.862;10.672;2022-07-23T14:04:41;20.30;99.90
29577;DHT22;16509;53.862;10.672;2022-07-23T14:07:07;20.10;99.90
29577;DHT22;16509;53.862;10.672;2022-07-23T14:09:34;20.20;99.90
29577;DHT22;16509;53.862;10.672;2022-07-23T14:11:59;20.20;99.90
29577;DHT22;16509;53.862;10.672;2022-07-23T14:14:25;20.20;99.90
29577;DHT22;16509;53.862;10.672;2022-07-23T14:16:51;20.30;99.90
29577;DHT22;16509;53.862;10.672;2022-07-23T14:19:17;19.90;99.90
29577;DHT22;16509;53.862;10.672;2022-07-23T14:21:42;20.10;99.90
29577;DHT22;16509;53.862;10.672;2022-07-23T14:24:08;19.80;99.90
29577;DHT22;16509;53.862;10.672;2022-07-23T14:26:34;19.50;99.90
29577;DHT22;16509;53.862;10.672;2022-07-23T14:29:01;19.60;99.90
29577;DHT22;16509;53.862;10.672;2022-07-23T14:31:27;19.60;99.90
29577;DHT22;16509;53.862;10.672;2022-07-23T14:33:52;19.20;99.90
29577;DHT22;16509;53.862;10.672;2022-07-23T14:36:18;20.60;99.90
29577;DHT22;16509;53.862;10.672;2022-07-23T14:38:44;19.60;99.90
29577;DHT22;16509;53.862;10.672;2022-07-23T14:41:09;19.70;99.90
29577;DHT22;16509;53.862;10.672;2022-07-23T14:43:36;19.30;99.90
29577;DHT22;16509;53.862;10.672;2022-07-23T14:46:02;19.90;99.90
29577;DHT22;16509;53.862;10.672;2022-07-23T14:48:27;19.50;99.90
29577;DHT22;16509;53.862;10.672;2022-07-23T14:50:53;19.40;99.90
29577;DHT22;16509;53.862;10.672;2022-07-23T14:53:18;19.50;99.90
29577;DHT22;16509;53.862;10.672;2022-07-23T14:55:45;19.40;99.90
29577;DHT22;16509;53.862;10.672;2022-07-23T14:58:10;19.40;99.90
29577;DHT22;16509;53.862;10.672;2022-07-23T15:00:36;19.50;99.90
29577;DHT22;16509;53.862;10.672;2022-07-23T15:03:02;20.70;99.90
29577;DHT22;16509;53.862;10.672;2022-07-23T15:05:28;19.80;99.90
29577;DHT22;16509;53.862;10.672;2022-07-23T15:07:54;19.70;99.90
29577;DHT22;16509;53.862;10.672;2022-07-23T15:10:20;19.80;99.90
29577;DHT22;16509;53.862;10.672;2022-07-23T15:12:46;20.20;99.90
29577;DHT22;16509;53.862;10.672;2022-07-23T15:15:12;20.80;99.90
29577;DHT22;16509;53.862;10.672;2022-07-23T15:17:38;19.50;99.90
29577;DHT22;16509;53.862;10.672;2022-07-23T15:20:04;19.60;99.90
29577;DHT22;16509;53.862;10.672;2022-07-23T15:22:30;19.20;99.90
29577;DHT22;16509;53.862;10.672;2022-07-23T15:24:56;19.30;99.90
29577;DHT22;16509;53.862;10.672;2022-07-23T15:27:21;19.10;99.90
29577;DHT22;16509;53.862;10.672;2022-07-23T15:29:47;18.90;99.90
29577;DHT22;16509;53.862;10.672;2022-07-23T15:32:12;18.90;99.90
29577;DHT22;16509;53.862;10.672;2022-07-23T15:34:38;19.10;99.90
29577;DHT22;16509;53.862;10.672;2022-07-23T15:37:04;19.50;99.90
29577;DHT22;16509;53.862;10.672;2022-07-23T15:39:33;19.10;99.90
29577;DHT22;16509;53.862;10.672;2022-07-23T15:42:00;19.10;99.90
29577;DHT22;16509;53.862;10.672;2022-07-23T15:44:26;19.10;99.90
29577;DHT22;16509;53.862;10.672;2022-07-23T15:46:51;19.60;99.90
29577;DHT22;16509;53.862;10.672;2022-07-23T15:49:17;19.40;99.90
29577;DHT22;16509;53.862;10.672;2022-07-23T15:51:43;19.60;99.90
29577;DHT22;16509;53.862;10.672;2022-07-23T15:54:09;19.20;99.90
29577;DHT22;16509;53.862;10.672;2022-07-23T15:56:34;19.20;99.90
29577;DHT22;16509;53.862;10.672;2022-07-23T15:59:00;19.20;99.90
29577;DHT22;16509;53.862;10.672;2022-07-23T16:01:26;19.30;99.90
29577;DHT22;16509;53.862;10.672;2022-07-23T16:03:55;19.20;99.90
29577;DHT22;16509;53.862;10.672;2022-07-23T16:06:20;19.20;99.90
29577;DHT22;16509;53.862;10.672;2022-07-23T16:08:46;20.50;99.90
29577;DHT22;16509;53.862;10.672;2022-07-23T16:11:12;19.30;99.90